Time;durP1;ratioP1;P1;durP2;ratioP2;P2;SDS_P1;SDS_P2;PMS_P1;PMS_P2;Temp;Humidity;BMP_temperature;BMP_pressure;BME280_temperature;BME280_humidity;BME280_pressure;Samples;Min_cycle;Max_cycle;Signal;HPM_P1;HPM_P2
2023/11/18 00:00:17;;;;;;;9.80;5.13;;;;;;;-0.42;58.57;102413.56;5007943;28;20102;-66
2023/11/18 00:02:43;;;;;;;8.93;5.22;;;;;;;-0.47;58.74;102412.56;4996957;28;20099;-66
2023/11/18 00:05:10;;;;;;;7.07;4.38;;;;;;;-0.39;58.33;102421.38;5002129;28;20033;-65
2023/11/18 00:07:36;;;;;;;7.07;4.50;;;;;;;-0.43;58.26;102422.09;5001403;28;20084;-65
2023/11/18 00:10:02;;;;;;;5.45;4.10;;;;;;;-0.50;58.63;102422.72;4995185;28;20041;-66
2023/11/18 00:12:27;;;;;;;7.50;3.88;;;;;;;-0.57;58.99;102424.25;5008830;28;20044;-68
2023/11/18 00:14:53;;;;;;;8.02;4.70;;;;;;;-0.62;59.08;102424.06;4997316;28;20061;-65
2023/11/18 00:17:20;;;;;;;13.00;5.63;;;;;;;-0.63;59.08;102413.78;5003353;28;20147;-64
2023/11/18 00:19:47;;;;;;;8.98;3.92;;;;;;;-0.65;59.35;102406.00;4993647;28;20042;-64
2023/11/18 00:22:12;;;;;;;8.35;4.28;;;;;;;-0.65;59.22;102407.72;5002798;28;20095;-65
2023/11/18 00:24:38;;;;;;;10.15;4.95;;;;;;;-0.63;59.29;102409.50;5001626;28;20452;-64
2023/11/18 00:27:05;;;;;;;6.72;3.75;;;;;;;-0.56;58.78;102416.56;5002076;28;20037;-64
2023/11/18 00:29:35;;;;;;;5.40;3.72;;;;;;;-0.53;58.78;102410.66;4999281;28;20036;-66
2023/11/18 00:32:02;;;;;;;7.50;3.53;;;;;;;-0.65;58.49;102418.84;4996658;28;20032;-67
2023/11/18 00:34:29;;;;;;;9.40;4.45;;;;;;;-0.73;58.69;102417.72;4985069;28;20046;-65
2023/11/18 00:36:57;;;;;;;7.47;3.35;;;;;;;-0.73;58.17;102417.72;4988693;28;20614;-66
2023/11/18 00:39:23;;;;;;;6.13;3.88;;;;;;;-0.83;58.31;102425.97;4999628;28;20046;-67
2023/11/18 00:41:49;;;;;;;5.90;3.53;;;;;;;-0.87;57.82;102429.28;4998051;28;20030;-65
2023/11/18 00:44:14;;;;;;;6.07;3.15;;;;;;;-0.90;58.36;102426.63;5000130;28;20060;-66
2023/11/18 00:46:40;;;;;;;6.20;3.25;;;;;;;-0.95;58.66;102428.13;4999658;28;20041;-66
2023/11/18 00:49:05;;;;;;;6.15;4.00;;;;;;;-0.92;58.29;102431.69;4996719;28;20033;-69
2023/11/18 00:51:31;;;;;;;6.07;3.22;;;;;;;-0.87;58.08;102429.28;4990084;28;20140;-69
2023/11/18 00:53:57;;;;;;;7.82;3.83;;;;;;;-0.91;58.30;102432.56;4997690;28;20037;-67
2023/11/18 00:56:22;;;;;;;8.20;4.20;;;;;;;-1.00;58.73;102433.13;5000191;28;20508;-67
2023/11/18 00:58:48;;;;;;;8.43;4.75;;;;;;;-1.06;59.14;102426.09;4997410;28;20512;-66
2023/11/18 01:01:17;;;;;;;8.57;4.28;;;;;;;-1.02;59.21;102430.53;5003802;28;20080;-65
2023/11/18 01:03:46;;;;;;;5.22;3.05;;;;;;;-1.03;59.19;102439.03;4999046;28;20642;-69
2023/11/18 01:06:12;;;;;;;7.65;3.80;;;;;;;-1.04;58.81;102436.41;5005060;28;20598;-66
2023/11/18 01:08:38;;;;;;;6.57;3.53;;;;;;;-1.06;58.79;102441.50;5001411;28;20255;-65
2023/11/18 01:11:04;;;;;;;8.32;3.83;;;;;;;-1.11;59.03;102442.13;4983063;28;20648;-66
2023/11/18 01:13:31;;;;;;;6.55;3.55;;;;;;;-1.09;59.25;102438.78;5007070;28;20207;-68
2023/11/18 01:15:57;;;;;;;9.57;5.05;;;;;;;-1.07;59.15;102437.13;5004359;28;20104;-67
2023/11/18 01:18:23;;;;;;;9.55;4.20;;;;;;;-1.07;59.29;102434.56;5000083;28;20041;-67
2023/11/18 01:20:48;;;;;;;6.90;4.25;;;;;;;-1.05;59.73;102435.53;4997125;28;20194;-67
2023/11/18 01:23:15;;;;;;;10.07;3.67;;;;;;;-1.01;59.63;102445.09;4991518;28;20435;-72
2023/11/18 01:25:41;;;;;;;8.50;4.50;;;;;;;-0.96;59.47;102434.97;5002706;28;20041;-72
2023/11/18 01:28:06;;;;;;;10.75;4.50;;;;;;;-0.88;59.54;102437.81;4987494;28;20299;-72
2023/11/18 01:30:36;;;;;;;6.50;4.30;;;;;;;-0.82;59.18;102443.13;5001794;28;20552;-69
2023/11/18 01:33:02;;;;;;;9.95;3.95;;;;;;;-0.83;59.16;102446.53;4996049;28;20073;-69
2023/11/18 01:35:27;;;;;;;8.75;4.18;;;;;;;-0.89;59.76;102448.88;5001385;28;20060;-66
2023/11/18 01:37:54;;;;;;;8.15;3.72;;;;;;;-0.79;59.98;102443.25;4984442;28;20604;-69
2023/11/18 01:40:20;;;;;;;10.00;4.45;;;;;;;-0.76;59.96;102440.75;5006720;28;20050;-66
2023/11/18 01:42:46;;;;;;;9.85;5.07;;;;;;;-0.71;60.35;102436.63;5005204;28;20037;-67
2023/11/18 01:45:14;;;;;;;7.03;2.92;;;;;;;-0.68;60.27;102444.44;5003301;28;20687;-67
2023/11/18 01:47:40;;;;;;;5.20;2.95;;;;;;;-0.65;59.90;102436.84;5005960;28;20594;-67
2023/11/18 01:50:11;;;;;;;7.70;4.10;;;;;;;-0.76;60.43;102430.50;4994417;28;20048;-67
2023/11/18 01:52:37;;;;;;;8.00;3.72;;;;;;;-0.69;60.60;102429.84;4998254;28;20488;-69
2023/11/18 01:55:06;;;;;;;8.07;3.85;;;;;;;-0.66;59.83;102422.25;4996120;28;20125;-66
2023/11/18 01:57:33;;;;;;;6.00;3.50;;;;;;;-0.65;60.02;102408.59;5004530;28;20515;-70
2023/11/18 02:00:00;;;;;;;7.57;4.70;;;;;;;-0.64;59.90;102412.91;4986463;28;20041;-67
2023/11/18 02:02:26;;;;;;;6.78;3.85;;;;;;;-0.61;60.02;102415.56;5005530;28;20037;-68
2023/11/18 02:04:52;;;;;;;9.07;4.50;;;;;;;-0.66;60.10;102417.13;4995275;28;20034;-69
2023/11/18 02:07:18;;;;;;;9.45;3.47;;;;;;;-0.66;60.02;102408.53;5002812;28;20123;-68
2023/11/18 02:09:45;;;;;;;9.93;4.45;;;;;;;-0.66;59.97;102413.66;4995800;28;20407;-75
2023/11/18 02:12:22;;;;;;;7.00;3.95;;;;;;;-0.64;59.69;102419.72;5005745;28;20055;-73
2023/11/18 02:14:50;;;;;;;7.78;3.42;;;;;;;-0.63;59.10;102430.06;4997351;28;20040;-74
2023/11/18 02:17:23;;;;;;;9.18;3.45;;;;;;;-0.72;59.12;102434.03;5005928;28;20120;-72
2023/11/18 02:19:56;;;;;;;5.70;3.13;;;;;;;-0.76;58.81;102423.66;5009007;28;20037;-71
2023/11/18 02:22:22;;;;;;;6.68;2.88;;;;;;;-0.79;58.34;102432.97;5000337;28;20021;-72
2023/11/18 02:24:48;;;;;;;6.45;3.85;;;;;;;-0.88;58.70;102422.41;4995314;28;20041;-73
2023/11/18 02:27:13;;;;;;;6.68;2.92;;;;;;;-0.95;58.91;102423.91;5002195;28;20045;-72
2023/11/18 02:29:42;;;;;;;6.32;3.90;;;;;;;-0.86;58.66;102425.88;4999277;28;20034;-72
2023/11/18 02:32:23;;;;;;;6.05;3.63;;;;;;;-0.82;58.59;102430.28;4985024;28;20029;-73
2023/11/18 02:35:25;;;;;;;7.38;3.42;;;;;;;-0.95;58.38;102425.56;4995397;28;20260;-72
2023/11/18 02:37:54;;;;;;;8.73;3.55;;;;;;;-1.02;59.07;102425.41;4997285;28;20148;-70
2023/11/18 02:40:33;;;;;;;8.02;4.43;;;;;;;-1.02;59.15;102415.13;4991819;28;20129;-72
2023/11/18 02:43:00;;;;;;;5.82;3.72;;;;;;;-1.02;59.53;102414.22;5009110;28;20069;-70
2023/11/18 02:45:27;;;;;;;8.63;4.07;;;;;;;-0.82;59.65;102415.75;5002682;28;20038;-73
2023/11/18 02:47:57;;;;;;;5.68;2.95;;;;;;;-0.71;59.76;102418.66;5000362;28;20057;-70
2023/11/18 02:50:27;;;;;;;9.40;3.35;;;;;;;-0.45;59.95;102413.47;4990001;28;20030;-70
2023/11/18 02:52:53;;;;;;;9.65;3.88;;;;;;;-0.37;59.64;102411.97;4994544;28;20045;-73
2023/11/18 02:55:21;;;;;;;7.00;3.08;;;;;;;-0.30;60.00;102406.22;5007489;28;20536;-70
2023/11/18 02:57:47;;;;;;;8.02;3.38;;;;;;;-0.26;59.63;102400.38;4999007;28;20030;-75
2023/11/18 03:00:22;;;;;;;6.93;4.38;;;;;;;-0.19;59.54;102406.53;4997987;28;20044;-75
2023/11/18 03:02:48;;;;;;;10.13;4.80;;;;;;;-0.13;59.82;102404.13;4992719;28;20041;-70
2023/11/18 03:05:15;;;;;;;10.93;4.47;;;;;;;-0.10;59.63;102413.63;4999209;28;21759;-70
2023/11/18 03:07:50;;;;;;;8.43;4.00;;;;;;;0.06;59.91;102409.00;5009867;28;20512;-68
2023/11/18 03:10:22;;;;;;;7.05;4.65;;;;;;;0.09;59.42;102403.06;5005768;28;20479;-67
2023/11/18 03:12:48;;;;;;;;;;;;;;;0.13;59.42;102398.88;4963198;28;20044;-68
2023/11/18 03:15:16;;;;;;;7.40;4.07;;;;;;;0.21;59.64;102397.38;5011594;28;20643;-68
2023/11/18 03:17:44;;;;;;;11.52;6.07;;;;;;;0.26;59.53;102394.13;5004548;28;20029;-67
2023/11/18 03:20:11;;;;;;;11.80;5.38;;;;;;;0.40;59.83;102399.63;5005408;28;20045;-67
2023/11/18 03:22:37;;;;;;;11.68;6.07;;;;;;;0.50;59.48;102395.59;5003922;28;20033;-68
2023/11/18 03:25:04;;;;;;;13.00;6.38;;;;;;;0.56;59.76;102406.03;4997469;28;20084;-71
2023/11/18 03:27:30;;;;;;;14.05;6.32;;;;;;;0.69;59.61;102402.97;5004175;28;20033;-70
2023/11/18 03:29:56;;;;;;;18.80;6.00;;;;;;;0.85;59.44;102395.63;5002698;28;20033;-69
2023/11/18 03:32:21;;;;;;;13.35;6.65;;;;;;;0.87;59.25;102393.97;5010760;28;20044;-69
2023/11/18 03:34:47;;;;;;;13.57;5.75;;;;;;;0.86;59.23;102393.09;4998886;28;20412;-69
2023/11/18 03:37:12;;;;;;;14.57;6.88;;;;;;;0.84;59.32;102396.47;5007597;28;20034;-71
2023/11/18 03:39:38;;;;;;;19.73;8.10;;;;;;;0.76;59.14;102397.97;4991226;28;20567;-71
2023/11/18 03:42:03;;;;;;;20.45;9.10;;;;;;;0.86;59.76;102397.38;4989795;28;20038;-70
2023/11/18 03:44:29;;;;;;;19.90;6.30;;;;;;;0.99;58.99;102404.56;4993444;28;20096;-70
2023/11/18 03:46:55;;;;;;;19.60;8.43;;;;;;;0.94;59.27;102398.41;4985680;28;20029;-71
2023/11/18 03:49:21;;;;;;;19.75;7.82;;;;;;;1.01;59.34;102399.44;4998938;28;20030;-70
2023/11/18 03:51:46;;;;;;;25.08;9.52;;;;;;;1.00;59.39;102393.44;5003971;28;20037;-70
2023/11/18 03:54:12;;;;;;;35.55;9.95;;;;;;;1.02;59.12;102385.75;4983971;28;20161;-70
2023/11/18 03:56:38;;;;;;;21.63;9.10;;;;;;;0.96;59.50;102390.75;5000984;28;20582;-70
2023/11/18 03:59:04;;;;;;;25.80;11.38;;;;;;;0.99;59.30;102383.09;4984586;28;20881;-70
2023/11/18 04:01:30;;;;;;;30.02;10.48;;;;;;;0.97;59.59;102377.03;4987193;28;20038;-72
2023/11/18 04:03:56;;;;;;;20.75;8.63;;;;;;;1.00;59.50;102388.28;5002024;28;20428;-72
2023/11/18 04:06:22;;;;;;;28.25;10.35;;;;;;;0.87;59.95;102383.66;4987620;28;20091;-72
2023/11/18 04:08:48;;;;;;;31.73;12.45;;;;;;;0.94;60.27;102392.41;5002402;28;20049;-71
2023/11/18 04:11:15;;;;;;;31.95;12.18;;;;;;;1.06;60.06;102383.28;5000846;28;20084;-72
2023/11/18 04:13:42;;;;;;;30.65;13.07;;;;;;;1.09;59.89;102378.19;4998902;28;20033;-71
2023/11/18 04:16:17;;;;;;;64.32;15.05;;;;;;;1.12;60.13;102377.38;5002081;28;20116;-73
2023/11/18 04:18:43;;;;;;;45.85;14.27;;;;;;;0.96;60.79;102370.16;4997673;28;20029;-72
2023/11/18 04:21:10;;;;;;;62.45;15.15;;;;;;;1.08;60.07;102361.03;5005065;28;20705;-72
2023/11/18 04:23:40;;;;;;;42.83;15.05;;;;;;;1.05;60.63;102360.94;5008847;28;20047;-73
2023/11/18 04:26:07;;;;;;;68.72;17.42;;;;;;;1.16;60.39;102353.44;4990424;28;20044;-71
2023/11/18 04:28:33;;;;;;;60.35;17.27;;;;;;;0.97;61.16;102348.69;4999322;28;20049;-72
2023/11/18 04:31:00;;;;;;;59.33;18.08;;;;;;;1.05;61.22;102345.47;5003260;28;20052;-72
2023/11/18 04:33:26;;;;;;;40.40;16.08;;;;;;;1.05;61.07;102335.19;5004553;28;21500;-72
2023/11/18 04:35:52;;;;;;;51.78;15.55;;;;;;;0.99;61.20;102347.94;5002073;28;20038;-72
2023/11/18 04:38:21;;;;;;;47.92;16.67;;;;;;;1.09;60.93;102342.13;4999331;28;20414;-72
2023/11/18 04:40:47;;;;;;;42.22;16.30;;;;;;;1.14;61.07;102339.66;5008540;28;20029;-72
2023/11/18 04:43:13;;;;;;;65.15;18.70;;;;;;;1.10;60.88;102346.47;4996492;28;20091;-72
2023/11/18 04:45:39;;;;;;;76.40;17.83;;;;;;;1.19;60.77;102344.91;5000574;28;20037;-72
2023/11/18 04:48:05;;;;;;;52.08;17.00;;;;;;;1.05;60.88;102334.31;4996298;28;20033;-76
2023/11/18 04:50:32;;;;;;;74.97;14.57;;;;;;;0.92;61.50;102333.16;5005369;28;20037;-72
2023/11/18 04:52:57;;;;;;;38.42;16.45;;;;;;;0.95;61.42;102322.94;4996600;28;20989;-72
2023/11/18 04:55:22;;;;;;;57.90;16.55;;;;;;;1.02;61.36;102329.97;5005813;28;20092;-68
2023/11/18 04:57:48;;;;;;;66.88;15.35;;;;;;;1.12;60.83;102320.72;4989134;28;20033;-72
2023/11/18 05:00:16;;;;;;;80.22;17.20;;;;;;;1.14;60.68;102324.22;4996359;28;20049;-69
2023/11/18 05:02:42;;;;;;;60.72;15.05;;;;;;;0.94;61.15;102318.59;4990139;28;20535;-69
2023/11/18 05:05:08;;;;;;;60.50;14.93;;;;;;;1.07;60.81;102323.22;4995946;28;20029;-69
2023/11/18 05:07:35;;;;;;;56.28;16.52;;;;;;;0.86;61.41;102322.72;4999707;28;20084;-69
2023/11/18 05:10:03;;;;;;;31.08;15.40;;;;;;;0.87;61.51;102319.31;4996046;28;20054;-69
2023/11/18 05:12:29;;;;;;;39.45;15.70;;;;;;;0.88;61.52;102315.88;5015737;28;20113;-70
2023/11/18 05:14:56;;;;;;;73.35;17.60;;;;;;;0.82;61.72;102305.47;4999629;28;20065;-69
2023/11/18 05:17:23;;;;;;;64.47;16.80;;;;;;;0.83;61.53;102296.91;4996735;28;20052;-70
2023/11/18 05:19:48;;;;;;;39.97;14.43;;;;;;;0.82;61.59;102297.75;5000002;28;20144;-70
2023/11/18 05:22:13;;;;;;;44.75;14.57;;;;;;;0.72;62.01;102304.38;4980091;28;20158;-70
2023/11/18 05:24:39;;;;;;;53.63;14.48;;;;;;;0.65;62.00;102308.50;4998384;28;20057;-69
2023/11/18 05:27:05;;;;;;;119.40;16.92;;;;;;;0.63;61.82;102307.56;4981400;28;20043;-67
2023/11/18 05:29:32;;;;;;;96.13;16.27;;;;;;;0.55;62.08;102306.53;5000943;28;20038;-76
2023/11/18 05:31:57;;;;;;;99.43;16.40;;;;;;;0.82;61.65;102301.19;4988795;28;20518;-77
2023/11/18 05:34:25;;;;;;;99.80;16.50;;;;;;;0.78;61.60;102306.22;4980049;28;20049;-76
2023/11/18 05:36:54;;;;;;;26.40;14.48;;;;;;;0.63;61.90;102309.28;4999825;28;20108;-78
2023/11/18 05:39:27;;;;;;;108.82;16.75;;;;;;;0.76;61.64;102305.31;4981898;28;20520;-76
2023/11/18 05:41:55;;;;;;;46.42;14.35;;;;;;;0.85;61.67;102311.53;5002284;28;20072;-77
2023/11/18 05:44:30;;;;;;;77.07;16.10;;;;;;;0.73;61.70;102323.28;4995113;28;20045;-71
2023/11/18 05:46:59;;;;;;;89.93;15.00;;;;;;;0.85;61.37;102320.97;5007712;28;20044;-70
2023/11/18 05:49:25;;;;;;;34.92;14.45;;;;;;;0.84;61.58;102321.81;4998918;28;20291;-72
2023/11/18 05:51:51;;;;;;;113.40;19.20;;;;;;;0.91;61.35;102310.81;4991231;28;20747;-69
2023/11/18 05:54:17;;;;;;;53.83;17.92;;;;;;;1.00;61.48;102321.34;4992660;28;20042;-70
2023/11/18 05:56:43;;;;;;;38.42;14.25;;;;;;;1.15;60.91;102317.34;5000242;28;20034;-70
2023/11/18 05:59:10;;;;;;;30.48;14.27;;;;;;;1.26;60.86;102318.47;4994749;28;20523;-70
2023/11/18 06:01:37;;;;;;;36.83;15.90;;;;;;;1.26;60.96;102328.75;4998748;28;20066;-71
2023/11/18 06:04:03;;;;;;;106.72;18.05;;;;;;;1.26;60.88;102323.63;5000784;28;20042;-76
2023/11/18 06:06:29;;;;;;;63.20;16.25;;;;;;;1.16;61.32;102319.97;4995200;28;20061;-70
2023/11/18 06:08:54;;;;;;;83.82;17.75;;;;;;;1.18;61.11;102310.56;4998533;28;20302;-67
2023/11/18 06:11:20;;;;;;;50.50;18.48;;;;;;;1.02;61.79;102299.06;4992635;28;20092;-68
2023/11/18 06:13:47;;;;;;;45.50;18.00;;;;;;;1.17;61.93;102307.97;5000225;28;20096;-68
2023/11/18 06:16:22;;;;;;;56.00;19.00;;;;;;;1.08;61.94;102308.63;5000521;28;20052;-68
2023/11/18 06:18:50;;;;;;;60.63;19.55;;;;;;;1.14;61.95;102303.63;4994352;28;20128;-69
2023/11/18 06:21:18;;;;;;;57.28;18.80;;;;;;;1.04;61.70;102302.56;4991546;28;20121;-70
2023/11/18 06:23:45;;;;;;;50.55;19.10;;;;;;;1.22;61.72;102308.94;5005330;28;20137;-71
2023/11/18 06:26:11;;;;;;;76.25;20.08;;;;;;;1.28;61.57;102303.91;4996527;28;20040;-71
2023/11/18 06:28:39;;;;;;;86.07;21.85;;;;;;;1.19;61.99;102301.13;5005463;28;20034;-71
2023/11/18 06:31:08;;;;;;;88.93;21.75;;;;;;;1.35;61.97;102300.66;4996326;28;20128;-69
2023/11/18 06:33:52;;;;;;;77.05;23.88;;;;;;;1.25;61.84;102306.44;4999337;28;20615;-77
2023/11/18 06:36:21;;;;;;;98.70;23.27;;;;;;;1.37;61.38;102304.09;4989561;28;20036;-78
2023/11/18 06:38:49;;;;;;;43.13;20.70;;;;;;;1.54;61.36;102308.78;5024368;28;20119;-76
2023/11/18 06:41:16;;;;;;;46.22;21.33;;;;;;;1.60;61.34;102304.63;5001193;28;20578;-73
2023/11/18 06:43:56;;;;;;;52.40;21.30;;;;;;;1.60;61.12;102308.94;5002482;28;20041;-73
2023/11/18 06:46:31;;;;;;;52.75;21.35;;;;;;;1.67;61.39;102306.50;4997463;28;20029;-72
2023/11/18 06:48:58;;;;;;;59.88;21.83;;;;;;;1.65;61.26;102299.56;5020179;28;20585;-79
2023/11/18 06:51:27;;;;;;;57.17;21.48;;;;;;;1.39;61.86;102299.00;4997754;28;20041;-77
2023/11/18 06:53:56;;;;;;;59.38;23.38;;;;;;;1.51;61.60;102305.31;5015213;28;20042;-76
2023/11/18 06:56:26;;;;;;;54.78;23.70;;;;;;;1.53;61.58;102302.78;5001127;28;20042;-74
2023/11/18 06:58:51;;;;;;;61.13;21.75;;;;;;;1.59;61.68;102309.75;4993400;28;20049;-80
2023/11/18 07:01:18;;;;;;;61.83;24.55;;;;;;;1.50;61.61;102302.69;5007653;28;20192;-79
2023/11/18 07:03:44;;;;;;;50.22;20.85;;;;;;;1.59;62.03;102307.16;5013885;28;20041;-80
2023/11/18 07:06:11;;;;;;;56.38;22.17;;;;;;;1.68;61.57;102297.91;5011116;28;20286;-74
2023/11/18 07:08:40;;;;;;;51.38;22.55;;;;;;;1.75;61.10;102287.72;4993082;28;20037;-73
2023/11/18 07:11:06;;;;;;;61.95;22.27;;;;;;;1.75;61.41;102292.88;5005118;28;20053;-74
2023/11/18 07:13:34;;;;;;;58.60;24.27;;;;;;;1.59;61.61;102297.72;5002950;28;20087;-80
2023/11/18 07:16:03;;;;;;;57.42;21.52;;;;;;;1.69;61.51;102293.63;5017847;28;20037;-85
2023/11/18 07:18:31;;;;;;;60.13;21.70;;;;;;;1.70;61.57;102297.94;4994429;28;20184;-68
2023/11/18 07:20:59;;;;;;;60.33;21.83;;;;;;;1.47;62.26;102288.03;4991689;28;20045;-69
2023/11/18 07:23:25;;;;;;;56.22;22.45;;;;;;;1.75;61.11;102288.59;4990775;28;20034;-68
2023/11/18 07:25:50;;;;;;;49.60;21.88;;;;;;;1.77;61.08;102292.06;4999109;28;20641;-69
2023/11/18 07:28:16;;;;;;;51.17;20.83;;;;;;;1.75;61.26;102298.03;4992445;28;20037;-68
2023/11/18 07:30:47;;;;;;;61.42;22.42;;;;;;;1.68;61.33;102294.47;4983966;28;20032;-71
2023/11/18 07:33:14;;;;;;;63.15;23.13;;;;;;;1.68;61.58;102291.88;4998335;28;20029;-70
2023/11/18 07:35:40;;;;;;;51.15;19.65;;;;;;;1.62;61.66;102282.34;5002009;28;20484;-72
2023/11/18 07:38:07;;;;;;;60.92;23.77;;;;;;;1.63;61.71;102288.34;5007798;28;20034;-71
2023/11/18 07:40:33;;;;;;;48.65;21.25;;;;;;;1.59;61.59;102287.41;4978043;28;21382;-71
2023/11/18 07:43:02;;;;;;;53.97;21.33;;;;;;;1.50;61.79;102287.22;5002137;28;20043;-71
2023/11/18 07:45:37;;;;;;;57.10;20.55;;;;;;;1.73;61.68;102282.56;4997399;28;20095;-68
2023/11/18 07:48:06;;;;;;;59.90;21.33;;;;;;;1.62;61.63;102281.47;5008470;28;20109;-70
2023/11/18 07:50:44;;;;;;;58.22;23.80;;;;;;;1.69;61.73;102278.19;4995916;28;22550;-68
2023/11/18 07:53:11;;;;;;;69.53;24.65;;;;;;;1.55;61.69;102272.75;4995272;28;73026;-71
2023/11/18 07:55:40;;;;;;;50.50;21.92;;;;;;;1.62;61.90;102276.31;4999322;28;20412;-68
2023/11/18 07:58:10;;;;;;;53.50;22.67;;;;;;;1.46;62.65;102270.84;5005450;28;20068;-69
2023/11/18 08:00:42;;;;;;;55.42;22.15;;;;;;;1.52;61.96;102276.13;5002083;28;20130;-71
2023/11/18 08:03:13;;;;;;;53.70;23.73;;;;;;;1.61;61.63;102275.44;5001439;28;20050;-72
2023/11/18 08:05:43;;;;;;;53.92;22.38;;;;;;;1.60;61.38;102278.88;5000299;28;20044;-71
2023/11/18 08:08:10;;;;;;;60.05;21.98;;;;;;;1.44;62.05;102282.84;4996311;28;20030;-68
2023/11/18 08:10:37;;;;;;;53.28;21.58;;;;;;;1.42;61.92;102287.09;4998154;28;20025;-70
2023/11/18 08:13:07;;;;;;;51.00;20.60;;;;;;;1.62;61.57;102286.63;5003481;28;20040;-69
2023/11/18 08:15:40;;;;;;;59.55;21.33;;;;;;;1.34;62.10;102290.31;4998179;28;20444;-68
2023/11/18 08:18:11;;;;;;;54.17;22.35;;;;;;;1.79;61.38;102284.38;5000585;28;20057;-70
2023/11/18 08:20:37;;;;;;;55.17;20.95;;;;;;;1.51;62.16;102279.53;4991991;28;21377;-69
2023/11/18 08:23:06;;;;;;;53.65;20.73;;;;;;;1.80;61.22;102275.81;5001500;28;20045;-70
2023/11/18 08:25:39;;;;;;;48.22;19.77;;;;;;;1.65;61.27;102272.09;4978373;28;20041;-70
2023/11/18 08:28:07;;;;;;;45.38;19.08;;;;;;;1.54;61.92;102262.41;4985879;28;20801;-70
2023/11/18 08:30:35;;;;;;;56.53;20.88;;;;;;;2.01;60.94;102258.13;4997639;28;20037;-70
2023/11/18 08:33:03;;;;;;;54.00;20.75;;;;;;;1.69;60.61;102262.72;5011126;28;20044;-69
2023/11/18 08:35:29;;;;;;;58.88;21.08;;;;;;;1.80;60.47;102271.50;5000207;28;20819;-70
2023/11/18 08:37:54;;;;;;;46.58;21.55;;;;;;;2.07;59.95;102267.72;4991574;28;20038;-70
2023/11/18 08:40:21;;;;;;;47.67;18.55;;;;;;;1.88;60.19;102258.75;4996370;28;20064;-70
2023/11/18 08:42:49;;;;;;;49.72;19.80;;;;;;;1.61;60.22;102251.38;4998197;28;20044;-70
2023/11/18 08:45:32;;;;;;;52.17;20.73;;;;;;;1.76;60.25;102243.94;5018449;28;20049;-70
2023/11/18 08:48:07;;;;;;;44.88;18.58;;;;;;;1.93;59.64;102234.81;5004349;28;20080;-69
2023/11/18 08:50:35;;;;;;;58.95;21.58;;;;;;;1.94;59.87;102228.78;4997474;28;20702;-70
2023/11/18 08:53:04;;;;;;;44.75;19.33;;;;;;;1.82;59.97;102226.00;5008605;28;20123;-70
2023/11/18 08:55:41;;;;;;;49.10;22.08;;;;;;;1.98;60.06;102228.88;4998575;28;20163;-69
2023/11/18 08:58:21;;;;;;;60.65;21.92;;;;;;;1.86;60.00;102219.19;4994422;28;20033;-69
2023/11/18 09:00:52;;;;;;;55.53;23.85;;;;;;;1.86;59.93;102225.22;4999315;28;20064;-69
2023/11/18 09:03:34;;;;;;;52.83;22.58;;;;;;;1.92;60.03;102229.63;4995620;28;20049;-69
2023/11/18 09:06:17;;;;;;;52.00;22.08;;;;;;;2.15;59.90;102222.25;5003189;28;20036;-69
2023/11/18 09:08:52;;;;;;;45.95;19.38;;;;;;;2.08;59.43;102233.31;4974784;28;20091;-69
2023/11/18 09:11:19;;;;;;;47.05;20.63;;;;;;;2.25;59.70;102231.91;5001516;28;20104;-69
2023/11/18 09:13:53;;;;;;;54.05;21.27;;;;;;;2.18;59.37;102230.06;4981621;28;20037;-69
2023/11/18 09:16:22;;;;;;;52.15;19.88;;;;;;;2.19;58.83;102226.63;4997445;28;20037;-69
2023/11/18 09:18:49;;;;;;;50.30;22.65;;;;;;;2.14;58.83;102210.22;5000945;28;20050;-69
2023/11/18 09:21:14;;;;;;;51.70;21.60;;;;;;;1.97;59.33;102209.06;5000052;28;20400;-70
2023/11/18 09:23:42;;;;;;;47.78;20.65;;;;;;;1.89;59.43;102199.50;4994735;28;20030;-69
2023/11/18 09:26:08;;;;;;;47.28;21.33;;;;;;;1.99;59.88;102195.34;5003293;28;20026;-68
2023/11/18 09:28:35;;;;;;;50.38;21.15;;;;;;;2.17;59.23;102189.63;4990546;28;20611;-68
2023/11/18 09:31:03;;;;;;;45.97;20.88;;;;;;;2.01;59.29;102188.50;5002577;28;20014;-67
2023/11/18 09:33:34;;;;;;;46.55;20.05;;;;;;;2.05;59.51;102185.16;4996258;28;20129;-69
2023/11/18 09:36:12;;;;;;;46.80;20.25;;;;;;;2.07;59.42;102177.44;4998081;28;20042;-69
2023/11/18 09:38:41;;;;;;;43.03;18.92;;;;;;;2.23;58.95;102175.97;4994178;28;20108;-68
2023/11/18 09:41:11;;;;;;;48.97;20.45;;;;;;;2.22;58.98;102161.31;5018527;28;20539;-67
2023/11/18 09:43:47;;;;;;;43.80;20.67;;;;;;;2.14;59.12;102164.66;4996977;28;20774;-68
2023/11/18 09:46:14;;;;;;;44.58;19.73;;;;;;;2.17;58.86;102163.81;5003713;28;20117;-67
2023/11/18 09:48:47;;;;;;;41.65;18.65;;;;;;;2.32;58.61;102170.94;4994678;28;20044;-68
2023/11/18 09:51:29;;;;;;;41.28;18.80;;;;;;;2.56;58.09;102173.03;5003531;28;20034;-68
2023/11/18 09:54:03;;;;;;;44.42;20.08;;;;;;;2.57;58.32;102170.44;5004484;28;20037;-69
2023/11/18 09:56:57;;;;;;;40.38;18.15;;;;;;;2.70;57.60;102179.25;5000024;28;20636;-67
2023/11/18 09:59:35;;;;;;;46.00;17.98;;;;;;;2.79;57.71;102175.06;4997244;28;20601;-68
2023/11/18 10:02:10;;;;;;;36.03;17.88;;;;;;;2.90;57.81;102163.16;5001180;28;20255;-67
2023/11/18 10:04:37;;;;;;;39.53;17.38;;;;;;;2.92;56.64;102166.63;4987292;28;20064;-68
2023/11/18 10:07:07;;;;;;;42.30;18.23;;;;;;;2.88;57.39;102162.25;4998829;28;20033;-68
2023/11/18 10:09:39;;;;;;;36.63;17.88;;;;;;;2.49;58.08;102150.56;4999706;28;20033;-67
2023/11/18 10:12:11;;;;;;;38.00;17.35;;;;;;;2.41;57.97;102152.16;5003521;28;20040;-67
2023/11/18 10:14:43;;;;;;;37.05;17.65;;;;;;;2.60;57.34;102148.09;4994692;28;20037;-68
2023/11/18 10:17:09;;;;;;;37.03;16.77;;;;;;;2.80;57.38;102143.22;5005857;28;20526;-67
2023/11/18 10:19:59;;;;;;;33.15;15.90;;;;;;;2.56;57.19;102136.91;4988621;28;20062;-68
2023/11/18 10:22:27;;;;;;;42.25;17.48;;;;;;;2.66;57.52;102143.03;4998098;28;20051;-68
2023/11/18 10:24:56;;;;;;;32.42;15.63;;;;;;;2.63;57.56;102143.88;4993741;28;20048;-71
2023/11/18 10:27:25;;;;;;;29.77;15.73;;;;;;;2.80;57.24;102130.28;5001480;28;20060;-68
2023/11/18 10:29:58;;;;;;;33.53;17.30;;;;;;;2.75;57.13;102125.94;4995845;28;20070;-67
2023/11/18 11:25:31;;;;;;;24.05;12.50;;;;;;;1.09;67.82;102038.28;5044174;27;1962587;-80
2023/11/18 11:28:10;;;;;;;35.08;14.50;;;;;;;1.51;64.38;102028.75;5066044;28;20048;-77
2023/11/18 11:30:49;;;;;;;35.03;15.57;;;;;;;1.94;62.77;102032.81;5070556;28;20030;-78
2023/11/18 11:33:27;;;;;;;40.33;15.75;;;;;;;2.03;62.44;102023.50;5056581;28;20059;-79
2023/11/18 11:35:58;;;;;;;38.67;16.40;;;;;;;2.23;61.73;102011.72;5044868;28;20028;-80
2023/11/18 11:38:26;;;;;;;33.78;14.57;;;;;;;2.20;60.84;102010.81;5070409;28;20044;-80
2023/11/18 11:40:55;;;;;;;35.50;15.60;;;;;;;2.19;60.84;102007.38;5072489;28;20020;-80
2023/11/18 11:43:27;;;;;;;28.20;13.70;;;;;;;2.27;60.53;102018.66;5066702;28;20099;-80
2023/11/18 11:45:55;;;;;;;35.17;16.23;;;;;;;2.40;60.19;102026.53;5048062;28;20062;-78
2023/11/18 11:48:27;;;;;;;33.03;15.43;;;;;;;2.41;59.92;102020.56;5036349;28;20047;-79
2023/11/18 11:51:14;;;;;;;29.52;14.00;;;;;;;2.31;59.99;102015.28;5047859;28;20028;-81
2023/11/18 11:53:52;;;;;;;27.30;12.52;;;;;;;2.30;60.18;102018.69;5051857;28;20080;-78
2023/11/18 11:56:24;;;;;;;29.10;13.68;;;;;;;1.94;60.92;102016.50;5070487;28;20036;-77
2023/11/18 11:58:53;;;;;;;28.48;14.02;;;;;;;2.02;60.84;102004.59;5052227;28;20680;-78
2023/11/18 12:01:34;;;;;;;26.15;13.48;;;;;;;2.20;59.50;102003.97;5069770;28;20039;-80
2023/11/18 12:04:06;;;;;;;24.42;13.60;;;;;;;2.18;60.24;101995.34;5051455;28;20036;-79
2023/11/18 12:06:41;;;;;;;;;;;;;;;2.11;60.57;101980.63;5056380;28;20036;-77
2023/11/18 12:09:09;;;;;;;28.55;12.60;;;;;;;2.06;60.41;102000.31;5071749;28;20687;-79
2023/11/18 12:11:39;;;;;;;21.73;12.23;;;;;;;2.24;60.01;102012.59;5071186;28;20489;-79
2023/11/18 12:14:12;;;;;;;24.50;13.23;;;;;;;2.21;59.78;102015.13;5086420;28;20140;-78
2023/11/18 12:17:21;;;;;;;34.58;13.35;;;;;;;2.10;60.42;101996.94;5058184;28;20039;-79
2023/11/18 12:19:48;;;;;;;22.80;12.43;;;;;;;1.82;60.83;101981.09;5052259;28;20038;-79